»·PEaware :: WAT292 KLAS-KSNA

WAT292 :: KLAS-KSNA

FLIGHT INFORMATION

Flight Status: Arrived
Operator:
Walker Air Transport
More flights by this operator :: More flights under this callsign
Pilot: Dan C. (28231)
Aircraft: Unknown
(E35L)
More flights by this aircraft type
Origin: KLAS McCarran Intl
United States
Destination: KSNA John Wayne-Orange Co
United States
More flights between these airports :: More routes between these airports
Route: +BOACH8 WHIGG FEYLA DSNEE4
File this flight plan on PilotEdge
Remarks:
Altitude:
(Current/Filed)
30,000ft
Speed:
(Current/Filed)
450kts
Departed: 20-Jul-20 11:43 AM
Arrived: 20-Jul-20 12:27 PM
Distance/Time
Traveled:
197nm/0:44
Distance/Time
To Go:
Arrived

Flight Plot

Page will automatically refresh every two minutes.

Flight plan parsing failed; only flown route is shown


Map Options




Map Legend


Flown Route
Filed Route
Departure Airport
Arrival Airport
Navaid (VOR, NDB)
Fix

Horizontal Profiles

Position Reports

Time Latitude Longitude Heading Altitude Ground
Speed
20-Jul-20 11:02 36.081965 -115.171631 0 2188ft 0kts
20-Jul-20 11:02 36.081965 -115.171631 0 2188ft 0kts
20-Jul-20 11:03 36.081965 -115.171631 0 2188ft 0kts
20-Jul-20 11:05 36.081965 -115.171631 0 2188ft 0kts
20-Jul-20 11:05 36.081965 -115.171631 0 2188ft 0kts
20-Jul-20 11:06 36.081965 -115.171631 0 2188ft 0kts
20-Jul-20 11:07 36.081965 -115.171631 0 2188ft 0kts
20-Jul-20 11:14 36.081965 -115.171631 0 2188ft 0kts
20-Jul-20 11:15 36.081965 -115.171631 0 2188ft 0kts
20-Jul-20 11:16 36.081965 -115.171631 0 2188ft 0kts
20-Jul-20 11:17 36.081965 -115.171631 0 2188ft 0kts
20-Jul-20 11:18 36.081965 -115.171631 0 2188ft 0kts
20-Jul-20 11:19 36.081965 -115.171631 0 2188ft 0kts
20-Jul-20 11:20 36.081965 -115.171631 0 2188ft 0kts
20-Jul-20 11:21 36.081965 -115.171631 0 2188ft 0kts
20-Jul-20 11:22 36.081965 -115.171631 0 2188ft 0kts
20-Jul-20 11:23 36.081965 -115.171631 0 2188ft 0kts
20-Jul-20 11:24 36.081965 -115.171631 0 2188ft 0kts
20-Jul-20 11:25 36.081965 -115.171631 0 2188ft 0kts
20-Jul-20 11:26 36.081965 -115.171631 0 2188ft 0kts
20-Jul-20 11:27 36.081965 -115.171631 0 2188ft 0kts
20-Jul-20 11:28 36.081965 -115.171631 0 2188ft 0kts
20-Jul-20 11:29 36.081728 -115.171692 28 2188ft 2kts
20-Jul-20 11:30 36.081471 -115.172188 86 2188ft 0kts
20-Jul-20 11:31 36.081471 -115.172187 86 2188ft 0kts
20-Jul-20 11:32 36.081471 -115.172187 86 2188ft 0kts
20-Jul-20 11:33 36.081546 -115.171151 77 2188ft 5kts
20-Jul-20 11:34 36.081985 -115.168943 35 2188ft 9kts
20-Jul-20 11:35 36.084634 -115.166536 26 2188ft 15kts
20-Jul-20 11:36 36.089751 -115.163630 25 2188ft 26kts
20-Jul-20 11:37 36.097923 -115.158947 24 2188ft 34kts
20-Jul-20 11:38 36.099872 -115.157589 85 2188ft 0kts
20-Jul-20 11:39 36.099872 -115.157589 85 2188ft 0kts
20-Jul-20 11:40 36.099872 -115.157589 85 2188ft 0kts
20-Jul-20 11:41 36.099083 -115.156753 200 2188ft 7kts
20-Jul-20 11:42 36.067208 -115.176405 210 3421ft 212kts
20-Jul-20 11:43 36.011262 -115.215803 239 6022ft 249kts
20-Jul-20 11:44 35.973957 -115.291783 222 6920ft 275kts
20-Jul-20 11:45 35.899563 -115.310005 187 7954ft 272kts
20-Jul-20 11:46 35.822516 -115.311050 175 10646ft 300kts
20-Jul-20 11:47 35.732934 -115.300982 174 13932ft 352kts
20-Jul-20 11:48 35.643082 -115.342801 226 17106ft 379kts
20-Jul-20 11:49 35.569204 -115.441500 227 18942ft 426kts
20-Jul-20 11:50 35.493121 -115.543698 227 18917ft 400kts
20-Jul-20 11:51 35.420602 -115.641464 227 19060ft 382kts
20-Jul-20 11:52 35.344268 -115.744101 226 20648ft 413kts
20-Jul-20 11:53 35.266140 -115.848811 226 23523ft 425kts
20-Jul-20 11:54 35.184526 -115.954799 224 26983ft 429kts
20-Jul-20 11:55 35.102011 -116.058827 225 29911ft 438kts
20-Jul-20 11:56 35.013489 -116.170088 225 29972ft 461kts
20-Jul-20 11:57 34.923871 -116.282326 225 29970ft 463kts
20-Jul-20 11:58 34.834446 -116.395326 225 30002ft 463kts
20-Jul-20 11:59 34.749314 -116.503651 225 29752ft 441kts
20-Jul-20 12:00 34.664418 -116.602929 218 27306ft 413kts
20-Jul-20 12:01 34.584739 -116.681033 217 23895ft 397kts
20-Jul-20 12:02 34.501400 -116.762916 222 21013ft 381kts
20-Jul-20 12:03 34.425225 -116.851382 222 18676ft 375kts
20-Jul-20 12:04 34.351201 -116.937151 222 16125ft 364kts
20-Jul-20 12:05 34.279619 -117.019592 222 14182ft 352kts
20-Jul-20 12:06 34.203208 -117.079608 210 13374ft 324kts
20-Jul-20 12:07 34.124815 -117.127485 202 12026ft 296kts
20-Jul-20 12:08 34.055867 -117.164446 202 12002ft 269kts
20-Jul-20 12:09 33.989495 -117.207033 228 12032ft 285kts
20-Jul-20 12:10 33.937280 -117.279094 229 11327ft 289kts
20-Jul-20 12:11 33.889649 -117.346472 228 9055ft 248kts
20-Jul-20 12:12 33.845519 -117.408665 230 8001ft 244kts
20-Jul-20 12:13 33.809249 -117.476499 249 7635ft 243kts
20-Jul-20 12:14 33.784581 -117.549721 243 7630ft 216kts
20-Jul-20 12:15 33.774532 -117.615918 317 7556ft 223kts
20-Jul-20 12:16 33.821153 -117.658184 321 5662ft 192kts
20-Jul-20 12:17 33.863732 -117.697017 321 5001ft 193kts
20-Jul-20 12:18 33.906371 -117.736137 321 4084ft 191kts
20-Jul-20 12:19 33.913591 -117.779168 201 3237ft 171kts
20-Jul-20 12:20 33.866950 -117.780609 181 3001ft 170kts
20-Jul-20 12:21 33.819619 -117.780916 181 2999ft 168kts
20-Jul-20 12:22 33.777711 -117.804090 208 2219ft 165kts
20-Jul-20 12:23 33.741003 -117.827402 209 1393ft 134kts
20-Jul-20 12:24 33.708556 -117.847995 209 689ft 131kts
20-Jul-20 12:25 33.677454 -117.867734 208 63ft 96kts
20-Jul-20 12:26 33.674179 -117.870701 291 63ft 0kts
20-Jul-20 12:27 33.676248 -117.870262 319 63ft 15kts
20-Jul-20 12:28 33.676414 -117.870793 281 63ft 0kts
20-Jul-20 12:29 33.676414 -117.870793 281 63ft 0kts
20-Jul-20 12:30 33.676414 -117.870793 281 63ft 0kts

Navigation Log

Ident Type
Flight plan parsing failed, navigation log unavailable